Terminal Aerodrome Forecast
Issued by NWS

Home | Current Version | Previous Version | Text Only | Print | Product List | Glossary On
Versions: 1 2 3 4 5 6 7 8 9 10 11 12 13
000
FTUS41 KCAR 272320
TAFBHB
TAF
KBHB 272320Z 2800/2824 VRB03KT P6SM FEW040 BKN200
     FM280300 19002KT P6SM OVC040
     FM280700 18005KT 6SM -RA OVC025
     FM280900 20005KT 4SM -RA BR OVC012
     FM281500 24005KT 6SM -SHRA OVC020
     FM281900 26010G18KT P6SM BKN040
      AMD LTD TO CLD VIS AND WIND=

USA.gov is the U.S. government's official web portal to all federal, state and local government web resources and services.